sensor_id;sensor_type;location;lat;lon;timestamp;temperature;humidity
14079;DHT22;7115;50.150;8.568;2022-11-27T00:00:29;8.00;99.90
14079;DHT22;7115;50.150;8.568;2022-11-27T00:02:57;8.00;99.90
14079;DHT22;7115;50.150;8.568;2022-11-27T00:05:24;8.10;99.90
14079;DHT22;7115;50.150;8.568;2022-11-27T00:07:51;8.10;99.90
14079;DHT22;7115;50.150;8.568;2022-11-27T00:10:18;8.00;99.90
14079;DHT22;7115;50.150;8.568;2022-11-27T00:12:45;8.00;99.90
14079;DHT22;7115;50.150;8.568;2022-11-27T00:15:12;8.00;99.90
14079;DHT22;7115;50.150;8.568;2022-11-27T00:17:43;8.00;99.90
14079;DHT22;7115;50.150;8.568;2022-11-27T00:20:12;8.00;99.90
14079;DHT22;7115;50.150;8.568;2022-11-27T00:22:39;8.00;99.90
14079;DHT22;7115;50.150;8.568;2022-11-27T00:25:06;8.00;99.90
14079;DHT22;7115;50.150;8.568;2022-11-27T00:27:33;7.90;99.90
14079;DHT22;7115;50.150;8.568;2022-11-27T00:30:00;7.90;99.90
14079;DHT22;7115;50.150;8.568;2022-11-27T00:32:27;7.90;99.90
14079;DHT22;7115;50.150;8.568;2022-11-27T00:34:54;7.90;99.90
14079;DHT22;7115;50.150;8.568;2022-11-27T00:37:22;7.90;99.90
14079;DHT22;7115;50.150;8.568;2022-11-27T00:39:49;7.90;99.90
14079;DHT22;7115;50.150;8.568;2022-11-27T00:42:16;7.90;99.90
14079;DHT22;7115;50.150;8.568;2022-11-27T00:44:43;8.00;99.90
14079;DHT22;7115;50.150;8.568;2022-11-27T00:47:10;8.00;99.90
14079;DHT22;7115;50.150;8.568;2022-11-27T00:49:37;8.10;99.90
14079;DHT22;7115;50.150;8.568;2022-11-27T00:52:04;8.10;99.90
14079;DHT22;7115;50.150;8.568;2022-11-27T00:54:32;8.10;99.90
14079;DHT22;7115;50.150;8.568;2022-11-27T00:56:59;8.20;99.90
14079;DHT22;7115;50.150;8.568;2022-11-27T00:59:26;8.20;99.90
14079;DHT22;7115;50.150;8.568;2022-11-27T01:01:53;8.20;99.90
14079;DHT22;7115;50.150;8.568;2022-11-27T01:04:19;8.20;99.90
14079;DHT22;7115;50.150;8.568;2022-11-27T01:06:46;8.20;99.90
14079;DHT22;7115;50.150;8.568;2022-11-27T01:09:14;8.20;99.90
14079;DHT22;7115;50.150;8.568;2022-11-27T01:11:42;8.20;99.90
14079;DHT22;7115;50.150;8.568;2022-11-27T01:14:11;8.20;99.90
14079;DHT22;7115;50.150;8.568;2022-11-27T01:16:38;8.20;99.90
14079;DHT22;7115;50.150;8.568;2022-11-27T01:19:10;8.20;99.90
14079;DHT22;7115;50.150;8.568;2022-11-27T01:21:37;8.20;99.90
14079;DHT22;7115;50.150;8.568;2022-11-27T01:24:04;8.20;99.90
14079;DHT22;7115;50.150;8.568;2022-11-27T01:26:32;8.10;99.90
14079;DHT22;7115;50.150;8.568;2022-11-27T01:29:00;8.20;99.90
14079;DHT22;7115;50.150;8.568;2022-11-27T01:31:30;8.10;99.90
14079;DHT22;7115;50.150;8.568;2022-11-27T01:34:00;8.10;99.90
14079;DHT22;7115;50.150;8.568;2022-11-27T01:36:27;8.10;99.90
14079;DHT22;7115;50.150;8.568;2022-11-27T01:38:55;8.00;99.90
14079;DHT22;7115;50.150;8.568;2022-11-27T01:41:24;8.00;99.90
14079;DHT22;7115;50.150;8.568;2022-11-27T01:43:53;8.00;99.90
14079;DHT22;7115;50.150;8.568;2022-11-27T01:46:27;8.00;99.90
14079;DHT22;7115;50.150;8.568;2022-11-27T01:48:59;8.00;99.90
14079;DHT22;7115;50.150;8.568;2022-11-27T01:51:30;8.00;99.90
14079;DHT22;7115;50.150;8.568;2022-11-27T01:53:57;8.00;99.90
14079;DHT22;7115;50.150;8.568;2022-11-27T01:56:25;8.10;99.90
14079;DHT22;7115;50.150;8.568;2022-11-27T01:58:53;8.10;99.90
14079;DHT22;7115;50.150;8.568;2022-11-27T02:01:20;8.00;99.90
14079;DHT22;7115;50.150;8.568;2022-11-27T02:03:51;8.00;99.90
14079;DHT22;7115;50.150;8.568;2022-11-27T02:06:18;8.00;99.90
14079;DHT22;7115;50.150;8.568;2022-11-27T02:08:45;8.00;99.90
14079;DHT22;7115;50.150;8.568;2022-11-27T02:11:18;8.10;99.90
14079;DHT22;7115;50.150;8.568;2022-11-27T02:13:49;8.10;99.90
14079;DHT22;7115;50.150;8.568;2022-11-27T02:16:30;8.10;99.90
14079;DHT22;7115;50.150;8.568;2022-11-27T02:19:10;8.20;99.90
14079;DHT22;7115;50.150;8.568;2022-11-27T02:21:46;8.20;99.90
14079;DHT22;7115;50.150;8.568;2022-11-27T02:27:32;8.20;99.90
14079;DHT22;7115;50.150;8.568;2022-11-27T02:30:07;8.30;99.90
14079;DHT22;7115;50.150;8.568;2022-11-27T02:32:36;8.30;99.90
14079;DHT22;7115;50.150;8.568;2022-11-27T02:35:09;8.30;99.90
14079;DHT22;7115;50.150;8.568;2022-11-27T02:37:43;8.30;99.90
14079;DHT22;7115;50.150;8.568;2022-11-27T02:40:14;8.30;99.90
14079;DHT22;7115;50.150;8.568;2022-11-27T02:42:48;8.20;99.90
14079;DHT22;7115;50.150;8.568;2022-11-27T02:45:20;8.20;99.90
14079;DHT22;7115;50.150;8.568;2022-11-27T02:47:48;8.20;99.90
14079;DHT22;7115;50.150;8.568;2022-11-27T02:50:18;8.20;99.90
14079;DHT22;7115;50.150;8.568;2022-11-27T02:52:47;8.20;99.90
14079;DHT22;7115;50.150;8.568;2022-11-27T02:55:19;8.20;99.90
14079;DHT22;7115;50.150;8.568;2022-11-27T02:57:48;8.20;99.90
14079;DHT22;7115;50.150;8.568;2022-11-27T03:00:18;8.10;99.90
14079;DHT22;7115;50.150;8.568;2022-11-27T03:02:49;8.10;99.90
14079;DHT22;7115;50.150;8.568;2022-11-27T03:05:19;8.10;99.90
14079;DHT22;7115;50.150;8.568;2022-11-27T03:07:51;8.10;99.90
14079;DHT22;7115;50.150;8.568;2022-11-27T03:10:23;8.10;99.90
14079;DHT22;7115;50.150;8.568;2022-11-27T03:12:52;8.10;99.90
14079;DHT22;7115;50.150;8.568;2022-11-27T03:15:22;8.10;99.90
14079;DHT22;7115;50.150;8.568;2022-11-27T03:17:54;8.10;99.90
14079;DHT22;7115;50.150;8.568;2022-11-27T03:20:25;8.00;99.90
14079;DHT22;7115;50.150;8.568;2022-11-27T03:22:53;7.90;99.90
14079;DHT22;7115;50.150;8.568;2022-11-27T03:25:20;7.90;99.90
14079;DHT22;7115;50.150;8.568;2022-11-27T03:27:51;7.80;99.90
14079;DHT22;7115;50.150;8.568;2022-11-27T03:30:21;7.80;99.90
14079;DHT22;7115;50.150;8.568;2022-11-27T03:32:48;7.70;99.90
14079;DHT22;7115;50.150;8.568;2022-11-27T03:35:17;7.70;99.90
14079;DHT22;7115;50.150;8.568;2022-11-27T03:37:46;7.70;99.90
14079;DHT22;7115;50.150;8.568;2022-11-27T03:40:13;7.70;99.90
14079;DHT22;7115;50.150;8.568;2022-11-27T03:42:48;7.70;99.90
14079;DHT22;7115;50.150;8.568;2022-11-27T03:45:26;7.60;99.90
14079;DHT22;7115;50.150;8.568;2022-11-27T03:48:05;7.60;99.90
14079;DHT22;7115;50.150;8.568;2022-11-27T03:50:44;7.50;99.90
14079;DHT22;7115;50.150;8.568;2022-11-27T03:53:20;7.50;99.90
14079;DHT22;7115;50.150;8.568;2022-11-27T03:55:54;7.40;99.90
14079;DHT22;7115;50.150;8.568;2022-11-27T03:58:29;7.40;99.90
14079;DHT22;7115;50.150;8.568;2022-11-27T04:01:01;7.40;99.90
14079;DHT22;7115;50.150;8.568;2022-11-27T04:03:29;7.30;99.90
14079;DHT22;7115;50.150;8.568;2022-11-27T04:05:57;7.30;99.90
14079;DHT22;7115;50.150;8.568;2022-11-27T04:08:24;7.30;99.90
14079;DHT22;7115;50.150;8.568;2022-11-27T04:10:51;7.30;99.90
14079;DHT22;7115;50.150;8.568;2022-11-27T04:13:18;7.30;99.90
14079;DHT22;7115;50.150;8.568;2022-11-27T04:15:45;7.30;99.90
14079;DHT22;7115;50.150;8.568;2022-11-27T04:18:13;7.30;99.90
14079;DHT22;7115;50.150;8.568;2022-11-27T04:20:40;7.30;99.90
14079;DHT22;7115;50.150;8.568;2022-11-27T04:23:07;7.30;99.90
14079;DHT22;7115;50.150;8.568;2022-11-27T04:25:34;7.30;99.90
14079;DHT22;7115;50.150;8.568;2022-11-27T04:28:01;7.30;99.90
14079;DHT22;7115;50.150;8.568;2022-11-27T04:30:28;7.20;99.90
14079;DHT22;7115;50.150;8.568;2022-11-27T04:32:54;7.20;99.90
14079;DHT22;7115;50.150;8.568;2022-11-27T04:35:23;7.20;99.90
14079;DHT22;7115;50.150;8.568;2022-11-27T04:37:50;7.10;99.90
14079;DHT22;7115;50.150;8.568;2022-11-27T04:40:17;7.10;99.90
14079;DHT22;7115;50.150;8.568;2022-11-27T04:42:44;7.10;99.90
14079;DHT22;7115;50.150;8.568;2022-11-27T04:45:11;7.00;99.90
14079;DHT22;7115;50.150;8.568;2022-11-27T04:47:38;7.00;99.90
14079;DHT22;7115;50.150;8.568;2022-11-27T04:50:06;7.00;99.90
14079;DHT22;7115;50.150;8.568;2022-11-27T04:52:34;7.00;99.90
14079;DHT22;7115;50.150;8.568;2022-11-27T04:55:01;7.00;99.90
14079;DHT22;7115;50.150;8.568;2022-11-27T04:57:29;7.00;99.90
14079;DHT22;7115;50.150;8.568;2022-11-27T04:59:56;7.00;99.90
14079;DHT22;7115;50.150;8.568;2022-11-27T05:02:23;7.10;99.90
14079;DHT22;7115;50.150;8.568;2022-11-27T05:04:50;7.10;99.90
14079;DHT22;7115;50.150;8.568;2022-11-27T05:07:16;7.10;99.90
14079;DHT22;7115;50.150;8.568;2022-11-27T05:09:45;7.10;99.90
14079;DHT22;7115;50.150;8.568;2022-11-27T05:12:12;7.10;99.90
14079;DHT22;7115;50.150;8.568;2022-11-27T05:14:38;7.10;99.90
14079;DHT22;7115;50.150;8.568;2022-11-27T05:17:06;7.00;99.90
14079;DHT22;7115;50.150;8.568;2022-11-27T05:19:33;7.10;99.90
14079;DHT22;7115;50.150;8.568;2022-11-27T05:22:00;7.00;99.90
14079;DHT22;7115;50.150;8.568;2022-11-27T05:24:27;7.00;99.90
14079;DHT22;7115;50.150;8.568;2022-11-27T05:26:56;7.00;99.90
14079;DHT22;7115;50.150;8.568;2022-11-27T05:29:24;6.90;99.90
14079;DHT22;7115;50.150;8.568;2022-11-27T05:31:51;6.90;99.90
14079;DHT22;7115;50.150;8.568;2022-11-27T05:34:18;6.90;99.90
14079;DHT22;7115;50.150;8.568;2022-11-27T05:36:46;6.90;99.90
14079;DHT22;7115;50.150;8.568;2022-11-27T05:39:13;6.80;99.90
14079;DHT22;7115;50.150;8.568;2022-11-27T05:41:41;6.80;99.90
14079;DHT22;7115;50.150;8.568;2022-11-27T05:44:12;6.80;99.90
14079;DHT22;7115;50.150;8.568;2022-11-27T05:46:39;6.80;99.90
14079;DHT22;7115;50.150;8.568;2022-11-27T05:49:06;6.80;99.90
14079;DHT22;7115;50.150;8.568;2022-11-27T05:51:33;6.70;99.90
14079;DHT22;7115;50.150;8.568;2022-11-27T05:54:00;6.70;99.90
14079;DHT22;7115;50.150;8.568;2022-11-27T05:56:27;6.70;99.90
14079;DHT22;7115;50.150;8.568;2022-11-27T05:58:54;6.60;99.90
14079;DHT22;7115;50.150;8.568;2022-11-27T06:01:22;6.60;99.90
14079;DHT22;7115;50.150;8.568;2022-11-27T06:03:49;6.60;99.90
14079;DHT22;7115;50.150;8.568;2022-11-27T06:06:17;6.60;99.90
14079;DHT22;7115;50.150;8.568;2022-11-27T06:08:45;6.60;99.90
14079;DHT22;7115;50.150;8.568;2022-11-27T06:11:15;6.60;99.90
14079;DHT22;7115;50.150;8.568;2022-11-27T06:13:43;6.60;99.90
14079;DHT22;7115;50.150;8.568;2022-11-27T06:16:12;6.50;99.90
14079;DHT22;7115;50.150;8.568;2022-11-27T06:18:41;6.50;99.90
14079;DHT22;7115;50.150;8.568;2022-11-27T06:21:08;6.40;99.90
14079;DHT22;7115;50.150;8.568;2022-11-27T06:23:36;6.50;99.90
14079;DHT22;7115;50.150;8.568;2022-11-27T06:26:14;6.50;99.90
14079;DHT22;7115;50.150;8.568;2022-11-27T06:28:42;6.50;99.90
14079;DHT22;7115;50.150;8.568;2022-11-27T06:31:10;6.40;99.90
14079;DHT22;7115;50.150;8.568;2022-11-27T06:33:45;6.40;99.90
14079;DHT22;7115;50.150;8.568;2022-11-27T06:36:12;6.40;99.90
14079;DHT22;7115;50.150;8.568;2022-11-27T06:38:39;6.40;99.90
14079;DHT22;7115;50.150;8.568;2022-11-27T06:41:08;6.40;99.90
14079;DHT22;7115;50.150;8.568;2022-11-27T06:43:35;6.30;99.90
14079;DHT22;7115;50.150;8.568;2022-11-27T06:46:03;6.30;99.90
14079;DHT22;7115;50.150;8.568;2022-11-27T06:48:31;6.30;99.90
14079;DHT22;7115;50.150;8.568;2022-11-27T06:51:00;6.20;99.90
14079;DHT22;7115;50.150;8.568;2022-11-27T06:53:28;6.20;99.90
14079;DHT22;7115;50.150;8.568;2022-11-27T06:55:55;6.20;99.90
14079;DHT22;7115;50.150;8.568;2022-11-27T06:58:22;6.20;99.90
14079;DHT22;7115;50.150;8.568;2022-11-27T07:00:57;6.20;99.90
14079;DHT22;7115;50.150;8.568;2022-11-27T07:03:24;6.20;99.90
14079;DHT22;7115;50.150;8.568;2022-11-27T07:05:51;6.20;99.90
14079;DHT22;7115;50.150;8.568;2022-11-27T07:08:20;6.20;99.90
14079;DHT22;7115;50.150;8.568;2022-11-27T07:10:48;6.20;99.90
14079;DHT22;7115;50.150;8.568;2022-11-27T07:13:14;6.20;99.90
14079;DHT22;7115;50.150;8.568;2022-11-27T07:15:42;6.20;99.90
14079;DHT22;7115;50.150;8.568;2022-11-27T07:18:09;6.20;99.90
14079;DHT22;7115;50.150;8.568;2022-11-27T07:20:36;6.30;99.90
14079;DHT22;7115;50.150;8.568;2022-11-27T07:23:03;6.30;99.90
14079;DHT22;7115;50.150;8.568;2022-11-27T07:25:31;6.30;99.90
14079;DHT22;7115;50.150;8.568;2022-11-27T07:27:58;6.30;99.90
14079;DHT22;7115;50.150;8.568;2022-11-27T07:30:25;6.30;99.90
14079;DHT22;7115;50.150;8.568;2022-11-27T07:32:52;6.40;99.90
14079;DHT22;7115;50.150;8.568;2022-11-27T07:35:19;6.50;99.90
14079;DHT22;7115;50.150;8.568;2022-11-27T07:37:45;6.60;99.90
14079;DHT22;7115;50.150;8.568;2022-11-27T07:40:13;6.70;99.90
14079;DHT22;7115;50.150;8.568;2022-11-27T07:42:42;6.80;99.90
14079;DHT22;7115;50.150;8.568;2022-11-27T07:45:09;6.80;99.90
14079;DHT22;7115;50.150;8.568;2022-11-27T07:47:37;6.90;99.90
14079;DHT22;7115;50.150;8.568;2022-11-27T07:50:05;7.00;99.90
14079;DHT22;7115;50.150;8.568;2022-11-27T07:52:34;7.30;99.90
14079;DHT22;7115;50.150;8.568;2022-11-27T07:55:07;7.70;99.90
14079;DHT22;7115;50.150;8.568;2022-11-27T07:57:34;8.10;99.90
14079;DHT22;7115;50.150;8.568;2022-11-27T08:00:03;8.50;99.90
14079;DHT22;7115;50.150;8.568;2022-11-27T08:02:30;8.90;99.90
14079;DHT22;7115;50.150;8.568;2022-11-27T08:04:57;9.10;99.90
14079;DHT22;7115;50.150;8.568;2022-11-27T08:07:26;9.50;99.90
14079;DHT22;7115;50.150;8.568;2022-11-27T08:09:53;9.60;99.90
14079;DHT22;7115;50.150;8.568;2022-11-27T08:12:19;9.70;99.90
14079;DHT22;7115;50.150;8.568;2022-11-27T08:14:48;9.80;99.90
14079;DHT22;7115;50.150;8.568;2022-11-27T08:17:16;10.10;99.90
14079;DHT22;7115;50.150;8.568;2022-11-27T08:19:43;10.50;99.90
14079;DHT22;7115;50.150;8.568;2022-11-27T08:22:11;10.70;99.90
14079;DHT22;7115;50.150;8.568;2022-11-27T08:24:38;10.50;99.90
14079;DHT22;7115;50.150;8.568;2022-11-27T08:27:08;10.30;99.90
14079;DHT22;7115;50.150;8.568;2022-11-27T08:29:35;10.10;99.90
14079;DHT22;7115;50.150;8.568;2022-11-27T08:32:03;10.00;99.90
14079;DHT22;7115;50.150;8.568;2022-11-27T08:34:31;9.90;99.90
14079;DHT22;7115;50.150;8.568;2022-11-27T08:36:58;9.70;99.90
14079;DHT22;7115;50.150;8.568;2022-11-27T08:39:25;9.60;99.90
14079;DHT22;7115;50.150;8.568;2022-11-27T08:41:53;9.50;99.90
14079;DHT22;7115;50.150;8.568;2022-11-27T08:44:20;9.30;99.90
14079;DHT22;7115;50.150;8.568;2022-11-27T08:46:47;9.10;99.90
14079;DHT22;7115;50.150;8.568;2022-11-27T08:49:14;8.90;99.90
14079;DHT22;7115;50.150;8.568;2022-11-27T08:51:42;8.70;99.90
14079;DHT22;7115;50.150;8.568;2022-11-27T08:54:09;8.60;99.90
14079;DHT22;7115;50.150;8.568;2022-11-27T08:56:36;8.60;99.90
14079;DHT22;7115;50.150;8.568;2022-11-27T08:59:03;8.60;99.90
14079;DHT22;7115;50.150;8.568;2022-11-27T09:01:31;8.60;99.90
14079;DHT22;7115;50.150;8.568;2022-11-27T09:03:58;8.60;99.90
14079;DHT22;7115;50.150;8.568;2022-11-27T09:06:27;8.50;99.90
14079;DHT22;7115;50.150;8.568;2022-11-27T09:08:57;8.40;99.90
14079;DHT22;7115;50.150;8.568;2022-11-27T09:11:24;8.40;99.90
14079;DHT22;7115;50.150;8.568;2022-11-27T09:13:52;8.70;99.90
14079;DHT22;7115;50.150;8.568;2022-11-27T09:16:20;9.10;99.90
14079;DHT22;7115;50.150;8.568;2022-11-27T09:18:49;9.50;99.90
14079;DHT22;7115;50.150;8.568;2022-11-27T09:21:18;9.70;99.90
14079;DHT22;7115;50.150;8.568;2022-11-27T09:23:45;9.80;99.90
14079;DHT22;7115;50.150;8.568;2022-11-27T09:26:15;9.80;99.90
14079;DHT22;7115;50.150;8.568;2022-11-27T09:28:43;10.00;99.90
14079;DHT22;7115;50.150;8.568;2022-11-27T09:31:11;10.10;99.90
14079;DHT22;7115;50.150;8.568;2022-11-27T09:33:39;10.20;99.90
14079;DHT22;7115;50.150;8.568;2022-11-27T09:36:09;10.50;99.90
14079;DHT22;7115;50.150;8.568;2022-11-27T09:38:36;10.70;99.90
14079;DHT22;7115;50.150;8.568;2022-11-27T09:41:14;10.70;99.90
14079;DHT22;7115;50.150;8.568;2022-11-27T09:43:48;10.70;99.90
14079;DHT22;7115;50.150;8.568;2022-11-27T09:46:24;10.50;99.90
14079;DHT22;7115;50.150;8.568;2022-11-27T09:48:52;10.30;99.90
14079;DHT22;7115;50.150;8.568;2022-11-27T09:51:25;10.10;99.90
14079;DHT22;7115;50.150;8.568;2022-11-27T09:53:59;9.80;99.90
14079;DHT22;7115;50.150;8.568;2022-11-27T09:56:31;9.60;99.90
14079;DHT22;7115;50.150;8.568;2022-11-27T09:58:59;9.50;99.90
14079;DHT22;7115;50.150;8.568;2022-11-27T10:01:28;9.50;99.90
14079;DHT22;7115;50.150;8.568;2022-11-27T10:04:09;9.60;99.90
14079;DHT22;7115;50.150;8.568;2022-11-27T10:06:41;9.70;99.90
14079;DHT22;7115;50.150;8.568;2022-11-27T10:09:19;9.80;99.90
14079;DHT22;7115;50.150;8.568;2022-11-27T10:11:55;10.00;99.90
14079;DHT22;7115;50.150;8.568;2022-11-27T10:14:35;10.20;99.90
14079;DHT22;7115;50.150;8.568;2022-11-27T10:17:11;10.50;99.90
14079;DHT22;7115;50.150;8.568;2022-11-27T10:19:46;11.10;99.90
14079;DHT22;7115;50.150;8.568;2022-11-27T10:22:20;11.70;99.90
14079;DHT22;7115;50.150;8.568;2022-11-27T10:24:56;12.20;99.90
14079;DHT22;7115;50.150;8.568;2022-11-27T10:27:31;12.50;99.90
14079;DHT22;7115;50.150;8.568;2022-11-27T10:30:00;12.70;99.90
14079;DHT22;7115;50.150;8.568;2022-11-27T10:32:30;12.90;99.90
14079;DHT22;7115;50.150;8.568;2022-11-27T10:35:19;13.00;99.90
14079;DHT22;7115;50.150;8.568;2022-11-27T10:37:51;13.00;99.90
14079;DHT22;7115;50.150;8.568;2022-11-27T10:40:22;12.90;99.90
14079;DHT22;7115;50.150;8.568;2022-11-27T10:42:57;12.70;99.90
14079;DHT22;7115;50.150;8.568;2022-11-27T10:45:36;12.50;99.90
14079;DHT22;7115;50.150;8.568;2022-11-27T10:48:05;12.40;99.90
14079;DHT22;7115;50.150;8.568;2022-11-27T10:50:32;12.20;99.90
14079;DHT22;7115;50.150;8.568;2022-11-27T10:53:02;12.10;99.90
14079;DHT22;7115;50.150;8.568;2022-11-27T10:55:40;12.00;99.90
14079;DHT22;7115;50.150;8.568;2022-11-27T10:58:16;11.90;99.90
14079;DHT22;7115;50.150;8.568;2022-11-27T11:00:46;11.80;99.90
14079;DHT22;7115;50.150;8.568;2022-11-27T11:03:16;11.70;99.90
14079;DHT22;7115;50.150;8.568;2022-11-27T11:05:54;11.60;99.90
14079;DHT22;7115;50.150;8.568;2022-11-27T11:08:43;11.50;99.90
14079;DHT22;7115;50.150;8.568;2022-11-27T11:11:10;11.30;99.90
14079;DHT22;7115;50.150;8.568;2022-11-27T11:13:44;11.20;99.90
14079;DHT22;7115;50.150;8.568;2022-11-27T11:16:17;11.10;99.90
14079;DHT22;7115;50.150;8.568;2022-11-27T11:18:51;10.80;99.90
14079;DHT22;7115;50.150;8.568;2022-11-27T11:21:23;10.60;99.90
14079;DHT22;7115;50.150;8.568;2022-11-27T11:23:56;10.50;99.90
14079;DHT22;7115;50.150;8.568;2022-11-27T11:26:26;10.40;99.90
14079;DHT22;7115;50.150;8.568;2022-11-27T11:28:56;10.20;99.90
14079;DHT22;7115;50.150;8.568;2022-11-27T11:31:29;10.10;99.90
14079;DHT22;7115;50.150;8.568;2022-11-27T11:33:58;10.00;99.90
14079;DHT22;7115;50.150;8.568;2022-11-27T11:36:26;10.00;99.90
14079;DHT22;7115;50.150;8.568;2022-11-27T11:38:53;10.00;99.90
14079;DHT22;7115;50.150;8.568;2022-11-27T11:41:20;10.00;99.90
14079;DHT22;7115;50.150;8.568;2022-11-27T11:43:58;10.00;99.90
14079;DHT22;7115;50.150;8.568;2022-11-27T11:46:28;10.00;99.90
14079;DHT22;7115;50.150;8.568;2022-11-27T11:48:58;10.00;99.90
14079;DHT22;7115;50.150;8.568;2022-11-27T11:51:35;10.10;99.90
14079;DHT22;7115;50.150;8.568;2022-11-27T11:54:14;10.20;99.90
14079;DHT22;7115;50.150;8.568;2022-11-27T11:56:47;10.30;99.90
14079;DHT22;7115;50.150;8.568;2022-11-27T11:59:25;10.40;99.90
14079;DHT22;7115;50.150;8.568;2022-11-27T12:02:23;10.50;99.90
14079;DHT22;7115;50.150;8.568;2022-11-27T12:05:06;10.60;99.90
14079;DHT22;7115;50.150;8.568;2022-11-27T12:10:31;10.70;99.90
14079;DHT22;7115;50.150;8.568;2022-11-27T12:13:15;10.70;99.90
14079;DHT22;7115;50.150;8.568;2022-11-27T12:15:51;10.70;99.90
14079;DHT22;7115;50.150;8.568;2022-11-27T12:18:24;10.80;99.90
14079;DHT22;7115;50.150;8.568;2022-11-27T12:21:00;10.80;99.90
14079;DHT22;7115;50.150;8.568;2022-11-27T12:23:55;10.80;99.90
14079;DHT22;7115;50.150;8.568;2022-11-27T12:26:31;11.00;99.90
14079;DHT22;7115;50.150;8.568;2022-11-27T12:29:23;11.00;99.90
14079;DHT22;7115;50.150;8.568;2022-11-27T12:32:09;11.10;99.90
14079;DHT22;7115;50.150;8.568;2022-11-27T12:34:47;11.20;99.90
14079;DHT22;7115;50.150;8.568;2022-11-27T12:37:28;11.20;99.90
14079;DHT22;7115;50.150;8.568;2022-11-27T12:40:08;11.30;99.90
14079;DHT22;7115;50.150;8.568;2022-11-27T12:42:41;11.30;99.90
14079;DHT22;7115;50.150;8.568;2022-11-27T12:45:15;11.30;99.90
14079;DHT22;7115;50.150;8.568;2022-11-27T12:47:48;11.30;99.90
14079;DHT22;7115;50.150;8.568;2022-11-27T12:50:21;11.30;99.90
14079;DHT22;7115;50.150;8.568;2022-11-27T12:52:57;11.30;99.90
14079;DHT22;7115;50.150;8.568;2022-11-27T12:55:30;11.30;99.90
14079;DHT22;7115;50.150;8.568;2022-11-27T12:58:01;11.30;99.90
14079;DHT22;7115;50.150;8.568;2022-11-27T13:00:32;11.40;99.90
14079;DHT22;7115;50.150;8.568;2022-11-27T13:03:08;11.50;99.90
14079;DHT22;7115;50.150;8.568;2022-11-27T13:05:39;11.50;99.90
14079;DHT22;7115;50.150;8.568;2022-11-27T13:08:12;11.70;99.90
14079;DHT22;7115;50.150;8.568;2022-11-27T13:10:44;11.80;99.90
14079;DHT22;7115;50.150;8.568;2022-11-27T13:13:15;11.70;99.90
14079;DHT22;7115;50.150;8.568;2022-11-27T13:15:47;11.70;99.90
14079;DHT22;7115;50.150;8.568;2022-11-27T13:18:20;11.50;99.90
14079;DHT22;7115;50.150;8.568;2022-11-27T13:20:50;11.40;99.90
14079;DHT22;7115;50.150;8.568;2022-11-27T13:23:18;11.30;99.90
14079;DHT22;7115;50.150;8.568;2022-11-27T13:25:49;11.20;99.90
14079;DHT22;7115;50.150;8.568;2022-11-27T13:28:23;11.10;99.90
14079;DHT22;7115;50.150;8.568;2022-11-27T13:30:52;10.90;99.90
14079;DHT22;7115;50.150;8.568;2022-11-27T13:33:29;10.90;99.90
14079;DHT22;7115;50.150;8.568;2022-11-27T13:36:00;10.80;99.90
14079;DHT22;7115;50.150;8.568;2022-11-27T13:38:28;10.80;99.90
14079;DHT22;7115;50.150;8.568;2022-11-27T13:40:59;10.80;99.90
14079;DHT22;7115;50.150;8.568;2022-11-27T13:43:40;10.80;99.90
14079;DHT22;7115;50.150;8.568;2022-11-27T13:46:11;10.80;99.90
14079;DHT22;7115;50.150;8.568;2022-11-27T13:48:46;10.80;99.90
14079;DHT22;7115;50.150;8.568;2022-11-27T13:51:24;10.80;99.90
14079;DHT22;7115;50.150;8.568;2022-11-27T13:53:51;10.80;99.90
14079;DHT22;7115;50.150;8.568;2022-11-27T13:56:28;10.80;99.90
14079;DHT22;7115;50.150;8.568;2022-11-27T13:58:55;10.80;99.90
14079;DHT22;7115;50.150;8.568;2022-11-27T14:01:23;10.80;99.90
14079;DHT22;7115;50.150;8.568;2022-11-27T14:03:52;10.80;99.90
14079;DHT22;7115;50.150;8.568;2022-11-27T14:06:22;10.70;99.90
14079;DHT22;7115;50.150;8.568;2022-11-27T14:08:55;10.70;99.90
14079;DHT22;7115;50.150;8.568;2022-11-27T14:11:35;10.70;99.90
14079;DHT22;7115;50.150;8.568;2022-11-27T14:14:14;10.70;99.90
14079;DHT22;7115;50.150;8.568;2022-11-27T14:16:49;10.70;99.90
14079;DHT22;7115;50.150;8.568;2022-11-27T14:19:28;10.60;99.90
14079;DHT22;7115;50.150;8.568;2022-11-27T14:22:00;10.60;99.90
14079;DHT22;7115;50.150;8.568;2022-11-27T14:24:36;10.40;99.90
14079;DHT22;7115;50.150;8.568;2022-11-27T14:27:15;10.30;99.90
14079;DHT22;7115;50.150;8.568;2022-11-27T14:29:42;10.10;99.90
14079;DHT22;7115;50.150;8.568;2022-11-27T14:32:11;10.00;99.90
14079;DHT22;7115;50.150;8.568;2022-11-27T14:34:41;9.80;99.90
14079;DHT22;7115;50.150;8.568;2022-11-27T14:37:20;9.70;99.90
14079;DHT22;7115;50.150;8.568;2022-11-27T14:39:47;9.70;99.90
14079;DHT22;7115;50.150;8.568;2022-11-27T14:42:19;9.60;99.90
14079;DHT22;7115;50.150;8.568;2022-11-27T14:45:00;9.60;99.90
14079;DHT22;7115;50.150;8.568;2022-11-27T14:47:28;9.60;99.90
14079;DHT22;7115;50.150;8.568;2022-11-27T14:49:56;9.60;99.90
14079;DHT22;7115;50.150;8.568;2022-11-27T14:52:23;9.60;99.90
14079;DHT22;7115;50.150;8.568;2022-11-27T14:54:51;9.60;99.90
14079;DHT22;7115;50.150;8.568;2022-11-27T14:57:22;9.70;99.90
14079;DHT22;7115;50.150;8.568;2022-11-27T15:00:00;9.70;99.90
14079;DHT22;7115;50.150;8.568;2022-11-27T15:02:27;9.60;99.90
14079;DHT22;7115;50.150;8.568;2022-11-27T15:05:03;9.60;99.90
14079;DHT22;7115;50.150;8.568;2022-11-27T15:07:31;9.60;99.90
14079;DHT22;7115;50.150;8.568;2022-11-27T15:10:22;9.50;99.90
14079;DHT22;7115;50.150;8.568;2022-11-27T15:12:49;9.50;99.90
14079;DHT22;7115;50.150;8.568;2022-11-27T15:15:19;9.40;99.90
14079;DHT22;7115;50.150;8.568;2022-11-27T15:17:48;9.30;99.90
14079;DHT22;7115;50.150;8.568;2022-11-27T15:20:23;9.20;99.90
14079;DHT22;7115;50.150;8.568;2022-11-27T15:22:52;9.20;99.90
14079;DHT22;7115;50.150;8.568;2022-11-27T15:25:33;9.10;99.90
14079;DHT22;7115;50.150;8.568;2022-11-27T15:28:00;9.00;99.90
14079;DHT22;7115;50.150;8.568;2022-11-27T15:30:27;8.90;99.90
14079;DHT22;7115;50.150;8.568;2022-11-27T15:32:54;8.90;99.90
14079;DHT22;7115;50.150;8.568;2022-11-27T15:35:25;8.90;99.90
14079;DHT22;7115;50.150;8.568;2022-11-27T15:37:54;8.80;99.90
14079;DHT22;7115;50.150;8.568;2022-11-27T15:40:27;8.80;99.90
14079;DHT22;7115;50.150;8.568;2022-11-27T15:42:54;8.80;99.90
14079;DHT22;7115;50.150;8.568;2022-11-27T15:45:21;8.70;99.90
14079;DHT22;7115;50.150;8.568;2022-11-27T15:47:48;8.70;99.90
14079;DHT22;7115;50.150;8.568;2022-11-27T15:50:23;8.70;99.90
14079;DHT22;7115;50.150;8.568;2022-11-27T15:52:50;8.60;99.90
14079;DHT22;7115;50.150;8.568;2022-11-27T15:55:17;8.60;99.90
14079;DHT22;7115;50.150;8.568;2022-11-27T15:57:44;8.60;99.90
14079;DHT22;7115;50.150;8.568;2022-11-27T16:00:12;8.50;99.90
14079;DHT22;7115;50.150;8.568;2022-11-27T16:02:39;8.60;99.90
14079;DHT22;7115;50.150;8.568;2022-11-27T16:05:07;8.60;99.90
14079;DHT22;7115;50.150;8.568;2022-11-27T16:07:36;8.60;99.90
14079;DHT22;7115;50.150;8.568;2022-11-27T16:10:04;8.60;99.90
14079;DHT22;7115;50.150;8.568;2022-11-27T16:12:31;8.60;99.90
14079;DHT22;7115;50.150;8.568;2022-11-27T16:14:58;8.60;99.90
14079;DHT22;7115;50.150;8.568;2022-11-27T16:17:25;8.60;99.90
14079;DHT22;7115;50.150;8.568;2022-11-27T16:19:52;8.60;99.90
14079;DHT22;7115;50.150;8.568;2022-11-27T16:22:19;8.60;99.90